Time;durP1;ratioP1;P1;durP2;ratioP2;P2;SDS_P1;SDS_P2;PMS_P1;PMS_P2;Temp;Humidity;BMP_temperature;BMP_pressure;BME280_temperature;BME280_humidity;BME280_pressure;Samples;Min_cycle;Max_cycle;Signal;HPM_P1;HPM_P2
2024/04/03 00:00:40;;;;;;;20.92;6.55;;;9.90;99.90;;;;;;5135222;27;20602;-81
2024/04/03 00:03:06;;;;;;;17.98;5.07;;;9.90;99.90;;;;;;5131155;27;20127;-80
2024/04/03 00:05:31;;;;;;;16.85;5.40;;;10.00;99.90;;;;;;5113037;28;20122;-82
2024/04/03 00:07:57;;;;;;;19.13;5.95;;;9.90;99.90;;;;;;5112536;28;20047;-82
2024/04/03 00:10:22;;;;;;;18.23;6.22;;;9.90;99.90;;;;;;5093850;28;20193;-80
2024/04/03 00:12:48;;;;;;;15.77;5.80;;;9.90;99.90;;;;;;5096672;28;20047;-83
2024/04/03 00:15:14;;;;;;;18.00;6.35;;;9.90;99.90;;;;;;5113974;27;20046;-80
2024/04/03 00:17:40;;;;;;;21.65;5.85;;;9.90;99.90;;;;;;5106177;28;20139;-80
2024/04/03 00:20:06;;;;;;;17.25;6.78;;;9.90;99.90;;;;;;5095110;28;20077;-79
2024/04/03 00:22:31;;;;;;;15.73;5.47;;;9.90;99.90;;;;;;5101827;28;20043;-79
2024/04/03 00:24:57;;;;;;;19.75;5.80;;;10.00;99.90;;;;;;5093961;28;20134;-80
2024/04/03 00:27:23;;;;;;;19.38;6.03;;;9.90;99.90;;;;;;5107749;28;20044;-79
2024/04/03 00:29:49;;;;;;;18.77;5.95;;;10.00;99.90;;;;;;5099704;28;20825;-80
2024/04/03 00:32:14;;;;;;;12.55;5.03;;;9.90;99.90;;;;;;5094110;28;20040;-79
2024/04/03 00:34:40;;;;;;;23.58;6.82;;;9.90;99.90;;;;;;5106337;28;20044;-80
2024/04/03 00:37:06;;;;;;;19.30;6.13;;;9.90;99.90;;;;;;5102409;28;20075;-80
2024/04/03 00:39:33;;;;;;;19.13;5.85;;;9.90;99.90;;;;;;5105141;28;20040;-79
2024/04/03 00:41:59;;;;;;;19.50;5.53;;;10.00;99.90;;;;;;5104142;28;20420;-80
2024/04/03 00:44:24;;;;;;;21.38;6.03;;;10.00;99.90;;;;;;5098288;28;20055;-80
2024/04/03 00:46:51;;;;;;;17.13;5.70;;;9.90;99.90;;;;;;5097795;28;20047;-80
2024/04/03 00:49:19;;;;;;;18.85;5.20;;;9.90;99.90;;;;;;5108875;28;20052;-80
2024/04/03 00:51:47;;;;;;;18.05;4.70;;;10.10;99.90;;;;;;5102127;28;20181;-80
2024/04/03 00:54:13;;;;;;;17.98;5.15;;;9.90;99.90;;;;;;5112078;28;20342;-79
2024/04/03 00:56:39;;;;;;;15.85;5.32;;;10.20;99.90;;;;;;5104671;28;20043;-79
2024/04/03 00:59:05;;;;;;;22.00;5.10;;;10.00;99.90;;;;;;5093547;28;20070;-79
2024/04/03 01:01:31;;;;;;;20.35;5.00;;;9.90;99.90;;;;;;5093059;28;20767;-81
2024/04/03 01:03:57;;;;;;;16.67;4.70;;;9.90;99.90;;;;;;5104108;28;20100;-80
2024/04/03 01:06:22;;;;;;;25.88;6.22;;;10.10;99.90;;;;;;5099257;28;20084;-79
2024/04/03 01:08:48;;;;;;;18.23;4.85;;;9.90;99.90;;;;;;5093463;28;20123;-79
2024/04/03 01:11:15;;;;;;;18.05;5.07;;;9.90;99.90;;;;;;5097161;28;20088;-80
2024/04/03 01:13:40;;;;;;;21.50;5.07;;;9.80;99.90;;;;;;5107834;28;20048;-79
2024/04/03 01:16:07;;;;;;;19.10;5.07;;;9.80;99.90;;;;;;5096733;28;20769;-79
2024/04/03 01:18:33;;;;;;;24.33;4.88;;;9.80;99.90;;;;;;5120935;27;20052;-79
2024/04/03 01:20:59;;;;;;;19.00;5.22;;;9.80;99.90;;;;;;5113135;28;20371;-79
2024/04/03 01:23:25;;;;;;;19.35;4.68;;;9.90;99.90;;;;;;5119748;27;20039;-79
2024/04/03 01:25:51;;;;;;;23.50;5.72;;;9.80;99.90;;;;;;5112439;28;20043;-79
2024/04/03 01:28:20;;;;;;;22.63;4.75;;;9.80;99.90;;;;;;5113450;28;20050;-79
2024/04/03 01:30:46;;;;;;;19.17;5.03;;;9.80;99.90;;;;;;5113291;28;20043;-79
2024/04/03 01:33:11;;;;;;;15.73;3.97;;;9.90;99.90;;;;;;5113208;28;20051;-80
2024/04/03 01:35:37;;;;;;;22.35;6.03;;;9.70;99.90;;;;;;5094857;28;20509;-79
2024/04/03 01:38:03;;;;;;;14.60;4.60;;;9.70;99.90;;;;;;5112174;28;20048;-77
2024/04/03 01:40:29;;;;;;;18.85;5.03;;;9.70;99.90;;;;;;5125495;27;20043;-77
2024/04/03 01:42:54;;;;;;;26.73;5.80;;;9.70;99.90;;;;;;5124085;28;20443;-78
2024/04/03 01:45:20;;;;;;;20.30;5.43;;;9.70;99.90;;;;;;5113168;28;20043;-78
2024/04/03 01:47:47;;;;;;;13.00;4.10;;;9.60;99.90;;;;;;5113018;28;20036;-78
2024/04/03 01:50:18;;;;;;;19.33;5.20;;;9.60;99.90;;;;;;5114113;28;20075;-78
2024/04/03 01:52:43;;;;;;;19.08;5.65;;;9.60;99.90;;;;;;5122876;28;20042;-77
2024/04/03 01:55:09;;;;;;;20.83;5.85;;;9.60;99.90;;;;;;5093525;28;20051;-78
2024/04/03 01:57:35;;;;;;;16.25;5.13;;;9.50;99.90;;;;;;5098768;28;20052;-77
2024/04/03 02:00:00;;;;;;;22.00;5.43;;;9.50;99.90;;;;;;5094871;28;20122;-77
2024/04/03 02:02:26;;;;;;;16.20;4.85;;;9.50;99.90;;;;;;5094560;28;20115;-77
2024/04/03 02:04:51;;;;;;;21.63;5.82;;;9.50;99.90;;;;;;5113037;28;20814;-77
2024/04/03 02:07:17;;;;;;;18.25;5.75;;;9.50;99.90;;;;;;5112464;28;20075;-78
2024/04/03 02:09:43;;;;;;;17.70;5.65;;;9.50;99.90;;;;;;5112693;28;20062;-77
2024/04/03 02:12:09;;;;;;;16.70;5.20;;;9.50;99.90;;;;;;5112740;28;20040;-77
2024/04/03 02:14:34;;;;;;;21.23;6.10;;;9.50;99.90;;;;;;5112637;28;20036;-78
2024/04/03 02:17:00;;;;;;;22.38;6.10;;;9.50;99.90;;;;;;5112570;28;20044;-77
2024/04/03 02:19:26;;;;;;;20.55;5.68;;;9.80;99.90;;;;;;5111890;28;20779;-78
2024/04/03 02:21:51;;;;;;;18.48;5.32;;;9.40;99.90;;;;;;5113062;28;20051;-78
2024/04/03 02:24:17;;;;;;;16.65;5.80;;;9.40;99.90;;;;;;5112875;28;20786;-78
2024/04/03 02:26:43;;;;;;;17.60;5.03;;;9.50;99.90;;;;;;5112592;28;20101;-78
2024/04/03 02:29:08;;;;;;;20.88;5.07;;;9.50;99.90;;;;;;5123568;28;20129;-78
2024/04/03 02:31:34;;;;;;;22.33;6.32;;;9.50;99.90;;;;;;5129671;28;20039;-78
2024/04/03 02:33:59;;;;;;;19.40;6.40;;;9.40;99.90;;;;;;5117808;28;20801;-80
2024/04/03 02:36:25;;;;;;;20.35;5.70;;;9.40;99.90;;;;;;5115698;28;20044;-78
2024/04/03 02:38:50;;;;;;;26.60;6.00;;;9.40;99.90;;;;;;5121915;27;20036;-79
2024/04/03 02:41:17;;;;;;;16.35;4.85;;;9.50;99.90;;;;;;5117738;28;20079;-82
2024/04/03 02:43:42;;;;;;;17.70;5.53;;;9.40;99.90;;;;;;5129378;28;20083;-78
2024/04/03 02:46:08;;;;;;;24.35;5.43;;;9.40;99.90;;;;;;5120521;28;20122;-79
2024/04/03 02:48:34;;;;;;;21.25;6.28;;;9.40;99.90;;;;;;5134543;27;20126;-78
2024/04/03 02:51:01;;;;;;;15.98;5.05;;;9.30;99.90;;;;;;5134832;27;20057;-78
2024/04/03 02:53:26;;;;;;;21.17;5.13;;;9.40;99.90;;;;;;5116314;28;20044;-79
2024/04/03 02:55:52;;;;;;;19.48;5.97;;;9.40;99.90;;;;;;5118082;27;20049;-78
2024/04/03 02:58:18;;;;;;;17.15;4.90;;;9.30;99.90;;;;;;5116479;28;20075;-78
2024/04/03 03:00:43;;;;;;;18.10;5.00;;;9.30;99.90;;;;;;5115706;28;20047;-78
2024/04/03 03:03:09;;;;;;;19.05;5.47;;;9.30;99.90;;;;;;5115782;28;20127;-79
2024/04/03 03:05:35;;;;;;;19.40;5.30;;;9.30;99.90;;;;;;5097503;28;20052;-78
2024/04/03 03:08:02;;;;;;;19.38;5.60;;;9.30;99.90;;;;;;5118998;27;20067;-78
2024/04/03 03:10:28;;;;;;;16.02;5.38;;;9.30;99.90;;;;;;5121860;27;20035;-79
2024/04/03 03:12:58;;;;;;;18.27;5.22;;;9.30;99.90;;;;;;5114488;28;20705;-78
2024/04/03 03:15:24;;;;;;;18.52;5.57;;;9.40;99.90;;;;;;5115411;28;20717;-78
2024/04/03 03:17:50;;;;;;;24.00;6.78;;;9.30;99.90;;;;;;5097272;28;20143;-78
2024/04/03 03:20:15;;;;;;;14.52;5.15;;;9.30;99.90;;;;;;5098466;28;20095;-78
2024/04/03 03:22:41;;;;;;;19.27;6.18;;;9.30;99.90;;;;;;5110489;28;20043;-78
2024/04/03 03:25:07;;;;;;;18.42;6.03;;;9.50;99.90;;;;;;5096996;28;20083;-80
2024/04/03 03:27:32;;;;;;;23.25;6.40;;;9.30;99.90;;;;;;5104226;27;20108;-80
2024/04/03 03:29:58;;;;;;;20.00;5.50;;;9.30;99.90;;;;;;5115179;27;20096;-77
2024/04/03 03:32:23;;;;;;;20.02;6.07;;;9.30;99.90;;;;;;5114925;27;20504;-77
2024/04/03 03:34:49;;;;;;;22.17;6.53;;;9.30;99.90;;;;;;5100735;27;20082;-78
2024/04/03 03:37:15;;;;;;;17.55;5.28;;;9.40;99.90;;;;;;5100654;28;20393;-77
2024/04/03 03:39:42;;;;;;;19.33;5.68;;;9.30;99.90;;;;;;5117163;27;20039;-77
2024/04/03 03:42:08;;;;;;;19.20;5.57;;;9.50;99.90;;;;;;5097986;27;20520;-77
2024/04/03 03:44:34;;;;;;;12.57;4.63;;;9.40;99.90;;;;;;5106381;27;20074;-78
2024/04/03 03:46:59;;;;;;;25.65;5.72;;;9.30;99.90;;;;;;5109947;27;20120;-77
2024/04/03 03:54:59;;;;;;;21.75;5.93;;;9.30;99.90;;;;;;5096597;28;20105;-78
2024/04/03 03:57:25;;;;;;;13.23;5.50;;;9.50;99.90;;;;;;5108141;28;20078;-76
2024/04/03 03:59:51;;;;;;;17.92;6.30;;;9.30;99.90;;;;;;5114336;28;20081;-79
2024/04/03 04:02:16;;;;;;;20.52;6.18;;;9.50;99.90;;;;;;5114803;28;20052;-78
2024/04/03 04:04:42;;;;;;;17.85;5.93;;;9.20;99.90;;;;;;5101727;28;20050;-78
2024/04/03 04:07:07;;;;;;;18.27;6.20;;;9.30;99.90;;;;;;5102245;27;20040;-79
2024/04/03 04:09:33;;;;;;;13.77;4.85;;;9.30;99.90;;;;;;5096808;28;20480;-78
2024/04/03 04:11:58;;;;;;;16.38;6.47;;;9.20;99.90;;;;;;5096230;28;20056;-79
2024/04/03 04:14:24;;;;;;;19.33;7.13;;;9.30;99.90;;;;;;5095986;28;20199;-80
2024/04/03 04:16:50;;;;;;;17.08;6.63;;;9.40;99.90;;;;;;5095162;28;20059;-78
2024/04/03 04:19:15;;;;;;;18.02;5.90;;;9.30;99.90;;;;;;5096332;28;20039;-78
2024/04/03 04:21:41;;;;;;;17.92;6.30;;;9.70;99.90;;;;;;5098367;28;20130;-80
2024/04/03 04:24:06;;;;;;;21.75;7.18;;;9.50;99.90;;;;;;5096514;28;20075;-79
2024/04/03 04:26:32;;;;;;;16.13;5.97;;;9.30;99.90;;;;;;5112074;27;20396;-79
2024/04/03 04:28:57;;;;;;;19.98;6.53;;;9.20;99.90;;;;;;5097383;28;20082;-79
2024/04/03 04:31:24;;;;;;;18.95;6.50;;;9.30;99.90;;;;;;5096314;28;20050;-79
2024/04/03 04:33:49;;;;;;;16.50;6.03;;;9.20;99.90;;;;;;5097011;28;20043;-79
2024/04/03 04:36:15;;;;;;;22.00;6.68;;;9.20;99.90;;;;;;5113689;28;20042;-78
2024/04/03 04:38:41;;;;;;;16.58;6.65;;;9.20;99.90;;;;;;5105541;27;20668;-78
2024/04/03 04:41:06;;;;;;;21.60;7.05;;;9.20;99.90;;;;;;5130602;27;20039;-84
2024/04/03 04:43:32;;;;;;;20.85;7.07;;;9.20;99.90;;;;;;5121443;27;20108;-80
2024/04/03 04:46:06;;;;;;;17.95;7.05;;;9.20;99.90;;;;;;5115886;27;20099;-79
2024/04/03 04:48:32;;;;;;;16.63;6.93;;;9.20;99.90;;;;;;5088369;28;20041;-78
2024/04/03 04:51:02;;;;;;;31.25;14.00;;;9.20;99.90;;;;;;5099802;28;20122;-79
2024/04/03 04:53:28;;;;;;;27.08;15.30;;;9.20;99.90;;;;;;5114127;28;20039;-78
2024/04/03 04:56:02;;;;;;;22.70;14.18;;;9.10;99.90;;;;;;5095564;28;20051;-78
2024/04/03 04:58:28;;;;;;;20.90;7.50;;;9.20;99.90;;;;;;5113889;28;20036;-79
2024/04/03 05:01:08;;;;;;;22.85;9.07;;;9.20;99.90;;;;;;5113799;28;20047;-78
2024/04/03 05:03:34;;;;;;;21.15;10.57;;;9.20;99.90;;;;;;5113230;28;20043;-78
2024/04/03 05:06:01;;;;;;;25.05;11.45;;;9.20;99.90;;;;;;5099505;27;20062;-78
2024/04/03 05:08:28;;;;;;;20.42;7.65;;;9.20;99.90;;;;;;5096617;28;20048;-78
2024/04/03 05:10:56;;;;;;;20.10;9.98;;;9.20;99.90;;;;;;5123829;27;20720;-78
2024/04/03 05:13:27;;;;;;;19.80;9.23;;;9.20;99.90;;;;;;5132321;27;20420;-79
2024/04/03 05:15:52;;;;;;;18.42;7.68;;;9.20;99.90;;;;;;5097523;27;20059;-80
2024/04/03 05:18:18;;;;;;;22.73;9.48;;;9.20;99.90;;;;;;5101939;28;20055;-80
2024/04/03 05:20:44;;;;;;;26.08;9.25;;;9.20;99.90;;;;;;5105051;27;20058;-80
2024/04/03 05:23:10;;;;;;;20.20;7.78;;;9.20;99.90;;;;;;5109831;28;20043;-79
2024/04/03 05:25:39;;;;;;;22.42;8.52;;;9.20;99.90;;;;;;5114130;27;20047;-78
2024/04/03 05:28:05;;;;;;;17.63;8.55;;;9.20;99.90;;;;;;5104188;27;20043;-78
2024/04/03 05:30:37;;;;;;;18.50;8.77;;;9.40;99.90;;;;;;5099342;28;20093;-80
2024/04/03 05:33:04;;;;;;;19.30;8.77;;;9.50;99.90;;;;;;5097621;28;20497;-85
2024/04/03 05:35:30;;;;;;;22.08;8.73;;;9.20;99.90;;;;;;5108819;28;20067;-79
2024/04/03 05:37:55;;;;;;;16.23;8.07;;;9.50;99.90;;;;;;5093967;28;20078;-79
2024/04/03 05:40:22;;;;;;;23.15;9.35;;;9.30;99.90;;;;;;5093886;28;20130;-79
2024/04/03 05:42:48;;;;;;;20.20;10.48;;;9.40;99.90;;;;;;5093871;28;20048;-79
2024/04/03 05:45:14;;;;;;;18.50;9.20;;;9.20;99.90;;;;;;5104123;28;20070;-77
2024/04/03 05:47:39;;;;;;;22.55;10.20;;;9.30;99.90;;;;;;5102380;28;20034;-77
2024/04/03 05:50:06;;;;;;;18.65;9.27;;;9.30;99.90;;;;;;5114221;28;20146;-82
2024/04/03 05:52:36;;;;;;;19.52;10.00;;;9.30;99.90;;;;;;5132891;28;20174;-77
2024/04/03 05:55:01;;;;;;;16.80;9.35;;;9.30;99.90;;;;;;5114062;28;20047;-78
2024/04/03 05:57:27;;;;;;;24.70;10.85;;;9.30;99.90;;;;;;5113604;28;20516;-77
2024/04/03 05:59:53;;;;;;;20.92;10.13;;;9.50;99.90;;;;;;5094172;28;20119;-78
2024/04/03 06:02:18;;;;;;;25.25;9.85;;;9.30;99.90;;;;;;5104342;28;20146;-79
2024/04/03 06:04:44;;;;;;;19.33;9.43;;;9.30;99.90;;;;;;5104893;28;20047;-80
2024/04/03 06:07:10;;;;;;;21.27;10.63;;;9.30;99.90;;;;;;5109212;28;20131;-80
2024/04/03 06:09:35;;;;;;;18.90;9.85;;;9.30;99.90;;;;;;5113119;28;20043;-78
2024/04/03 06:12:02;;;;;;;22.70;9.98;;;9.30;99.90;;;;;;5097046;28;20044;-84
2024/04/03 06:14:27;;;;;;;17.45;9.45;;;9.30;99.90;;;;;;5094531;28;20498;-78
2024/04/03 06:16:53;;;;;;;19.52;10.68;;;9.30;99.90;;;;;;5122932;28;20126;-78
2024/04/03 06:19:19;;;;;;;18.10;10.15;;;9.30;99.90;;;;;;5124131;28;20040;-78
2024/04/03 06:21:44;;;;;;;18.90;10.68;;;9.30;99.90;;;;;;5112863;28;20046;-81
2024/04/03 06:24:10;;;;;;;22.80;10.50;;;9.40;99.90;;;;;;5114543;27;20134;-78
2024/04/03 06:26:36;;;;;;;21.67;10.80;;;9.30;99.90;;;;;;5096487;28;20050;-78
2024/04/03 06:29:03;;;;;;;18.80;10.27;;;9.40;99.90;;;;;;5114942;27;20043;-80
2024/04/03 06:31:29;;;;;;;21.17;10.25;;;9.40;99.90;;;;;;5097028;28;20040;-77
2024/04/03 06:33:59;;;;;;;21.20;10.98;;;9.40;99.90;;;;;;5097995;27;20040;-77
2024/04/03 06:36:29;;;;;;;17.50;10.05;;;9.40;99.90;;;;;;5117205;27;20051;-77
2024/04/03 06:38:55;;;;;;;19.67;11.00;;;9.50;99.90;;;;;;5111170;28;20566;-79
2024/04/03 06:41:23;;;;;;;24.58;10.68;;;9.40;99.90;;;;;;5096985;28;20047;-78
2024/04/03 06:43:49;;;;;;;17.73;9.32;;;9.40;99.90;;;;;;5105353;28;20050;-77
2024/04/03 06:46:15;;;;;;;17.73;10.45;;;9.50;99.90;;;;;;5098518;28;20151;-77
2024/04/03 06:48:40;;;;;;;16.95;9.93;;;9.50;99.90;;;;;;5119938;27;20851;-78
2024/04/03 06:51:06;;;;;;;18.15;10.70;;;9.40;99.90;;;;;;5115162;27;20047;-77
2024/04/03 06:53:32;;;;;;;23.55;10.75;;;9.50;99.90;;;;;;5106072;27;20039;-78
2024/04/03 06:56:02;;;;;;;21.90;10.63;;;9.50;99.90;;;;;;5100073;28;20043;-78
2024/04/03 06:58:40;;;;;;;19.05;10.95;;;9.50;99.90;;;;;;5116279;27;20472;-77
2024/04/03 07:01:06;;;;;;;17.73;11.00;;;9.50;99.90;;;;;;5114973;28;20123;-78
2024/04/03 07:03:33;;;;;;;18.52;10.40;;;9.50;99.90;;;;;;5102932;27;20047;-77
2024/04/03 07:05:59;;;;;;;16.95;10.93;;;9.50;99.90;;;;;;5100993;28;20044;-78
2024/04/03 07:08:25;;;;;;;19.92;11.57;;;9.50;99.90;;;;;;5103833;28;20079;-78
2024/04/03 07:10:51;;;;;;;20.63;10.90;;;9.60;99.90;;;;;;5111043;27;20555;-77
2024/04/03 07:13:17;;;;;;;21.95;14.15;;;9.50;99.90;;;;;;5115080;27;20497;-77
2024/04/03 07:15:49;;;;;;;18.67;11.52;;;9.50;99.90;;;;;;5097910;28;20080;-80
2024/04/03 07:18:16;;;;;;;20.42;11.55;;;9.50;99.90;;;;;;5098838;28;20112;-77
2024/04/03 07:20:42;;;;;;;23.08;11.07;;;9.50;99.90;;;;;;5125245;27;20052;-78
2024/04/03 07:23:08;;;;;;;24.13;12.38;;;9.50;99.90;;;;;;5097629;28;20052;-77
2024/04/03 07:25:35;;;;;;;18.35;11.85;;;9.60;99.90;;;;;;5114223;28;20047;-77
2024/04/03 07:28:11;;;;;;;18.95;11.45;;;9.60;99.90;;;;;;5086981;28;20660;-80
2024/04/03 07:30:39;;;;;;;20.05;11.48;;;9.60;99.90;;;;;;5127470;27;20401;-77
2024/04/03 07:33:05;;;;;;;18.05;10.98;;;9.60;99.90;;;;;;5107461;27;20046;-78
2024/04/03 07:35:34;;;;;;;23.52;12.80;;;9.60;99.90;;;;;;5105981;27;20490;-79
2024/04/03 07:38:00;;;;;;;18.95;10.57;;;9.60;99.90;;;;;;5131650;27;20523;-80
2024/04/03 07:40:26;;;;;;;21.35;11.60;;;9.60;99.90;;;;;;5096977;28;20047;-79
2024/04/03 07:42:51;;;;;;;17.30;11.55;;;9.60;99.90;;;;;;5114893;27;20055;-78
2024/04/03 07:45:17;;;;;;;19.20;11.77;;;9.70;99.90;;;;;;5123665;27;20047;-78
2024/04/03 07:47:42;;;;;;;15.35;7.05;;;9.70;99.90;;;;;;5125537;27;20042;-78
2024/04/03 07:50:08;;;;;;;13.07;8.07;;;9.70;99.90;;;;;;5099380;28;20047;-78
2024/04/03 07:52:40;;;;;;;15.48;8.60;;;9.70;99.90;;;;;;5100522;27;20041;-77
2024/04/03 07:55:07;;;;;;;14.18;8.75;;;9.80;99.90;;;;;;5110943;28;20846;-79
2024/04/03 07:57:34;;;;;;;17.10;9.50;;;9.70;99.90;;;;;;5108829;27;20042;-77
2024/04/03 08:00:00;;;;;;;15.77;9.85;;;9.70;99.90;;;;;;5133844;27;20050;-84
2024/04/03 08:02:26;;;;;;;18.10;10.35;;;9.80;99.90;;;;;;5115613;27;20779;-81
2024/04/03 08:04:53;;;;;;;19.88;9.95;;;10.20;99.90;;;;;;5115209;27;20031;-77
2024/04/03 08:07:19;;;;;;;17.15;9.82;;;9.80;99.90;;;;;;5116326;27;20047;-77
2024/04/03 08:09:44;;;;;;;16.30;9.52;;;9.80;99.90;;;;;;5107491;28;20674;-77
2024/04/03 08:12:10;;;;;;;14.13;9.05;;;10.10;99.90;;;;;;5114932;28;20046;-78
2024/04/03 08:14:35;;;;;;;16.67;9.52;;;9.90;99.90;;;;;;5096781;28;20496;-77
2024/04/03 08:17:01;;;;;;;14.77;8.63;;;9.90;99.90;;;;;;5102510;27;20096;-77
2024/04/03 08:19:26;;;;;;;14.52;8.55;;;10.00;99.90;;;;;;5108053;28;20118;-78
2024/04/03 08:21:52;;;;;;;13.68;8.85;;;10.00;99.90;;;;;;5103458;28;20042;-78
2024/04/03 08:24:18;;;;;;;15.30;8.65;;;10.40;99.90;;;;;;5112493;28;20044;-77
2024/04/03 08:26:43;;;;;;;13.60;7.85;;;10.00;99.90;;;;;;5099661;27;20134;-78
2024/04/03 08:29:12;;;;;;;12.00;7.35;;;10.10;99.90;;;;;;5114505;27;20047;-77
2024/04/03 08:31:37;;;;;;;15.55;7.68;;;10.30;99.90;;;;;;5115495;27;20039;-77
2024/04/03 08:34:03;;;;;;;12.90;8.23;;;10.10;99.90;;;;;;5116284;27;20437;-78
2024/04/03 08:36:29;;;;;;;12.80;6.70;;;10.20;99.90;;;;;;5116851;27;20091;-78
2024/04/03 08:38:54;;;;;;;12.40;7.47;;;10.30;99.90;;;;;;5109771;28;20040;-77
2024/04/03 08:41:20;;;;;;;11.27;7.68;;;10.30;99.90;;;;;;5096008;28;20075;-77
2024/04/03 08:43:48;;;;;;;13.27;7.60;;;10.30;99.90;;;;;;5096289;28;20108;-77
2024/04/03 08:46:15;;;;;;;11.93;6.78;;;10.40;99.90;;;;;;5094991;28;20685;-77
2024/04/03 08:48:40;;;;;;;15.73;7.15;;;10.50;99.90;;;;;;5095964;28;20062;-77
2024/04/03 08:51:06;;;;;;;9.60;5.40;;;10.60;99.90;;;;;;5104197;27;20039;-77
2024/04/03 08:53:32;;;;;;;9.43;6.25;;;10.50;99.90;;;;;;5116569;27;20560;-77
2024/04/03 08:55:58;;;;;;;10.00;5.50;;;10.60;99.90;;;;;;5116574;27;20043;-77
2024/04/03 08:58:25;;;;;;;10.02;5.70;;;10.60;99.90;;;;;;5112570;28;20050;-77
2024/04/03 09:00:52;;;;;;;9.00;5.75;;;10.60;99.90;;;;;;5102457;27;20063;-80
2024/04/03 09:03:21;;;;;;;9.63;5.93;;;10.80;99.90;;;;;;5115507;27;20070;-77
2024/04/03 09:05:49;;;;;;;8.77;4.80;;;10.60;99.90;;;;;;5113797;27;20058;-78
2024/04/03 09:08:15;;;;;;;10.30;5.00;;;10.60;99.90;;;;;;5113371;28;20776;-79
2024/04/03 09:10:49;;;;;;;11.20;5.00;;;10.70;99.90;;;;;;5095399;28;20040;-77
2024/04/03 09:13:16;;;;;;;9.20;4.97;;;10.70;99.90;;;;;;5113779;28;20058;-77
2024/04/03 09:15:42;;;;;;;9.80;5.15;;;10.80;99.90;;;;;;5095235;28;20374;-77
2024/04/03 09:18:14;;;;;;;9.23;5.40;;;10.80;99.90;;;;;;5099397;28;20062;-78
2024/04/03 09:20:40;;;;;;;8.80;4.85;;;11.20;99.90;;;;;;5103627;28;20088;-78
2024/04/03 09:23:09;;;;;;;11.32;5.55;;;11.00;99.90;;;;;;5101873;27;20123;-78
2024/04/03 09:25:36;;;;;;;8.82;4.47;;;11.30;99.90;;;;;;5115373;27;20051;-82
2024/04/03 09:28:04;;;;;;;8.10;4.88;;;11.10;99.90;;;;;;5132893;27;20465;-80
2024/04/03 09:30:30;;;;;;;6.68;3.90;;;11.10;99.90;;;;;;5109760;28;20071;-80
2024/04/03 09:33:00;;;;;;;9.77;4.60;;;11.20;99.90;;;;;;5102763;28;20078;-78
2024/04/03 09:35:34;;;;;;;6.88;3.72;;;11.10;99.90;;;;;;5094969;28;20063;-78
2024/04/03 09:38:01;;;;;;;9.02;4.47;;;11.20;99.90;;;;;;5095042;28;20055;-78
2024/04/03 09:40:31;;;;;;;8.10;4.45;;;11.20;99.90;;;;;;5106271;28;20047;-78
2024/04/03 09:43:02;;;;;;;7.57;4.40;;;11.20;99.90;;;;;;5107372;28;20046;-81
2024/04/03 09:45:29;;;;;;;8.00;4.13;;;11.30;99.90;;;;;;5106559;28;20054;-78
2024/04/03 09:47:59;;;;;;;6.28;3.78;;;11.40;99.90;;;;;;5115373;27;20079;-79
2024/04/03 09:50:41;;;;;;;8.10;4.00;;;11.40;99.90;;;;;;5133288;27;20035;-79
2024/04/03 09:53:09;;;;;;;7.22;3.35;;;11.40;99.90;;;;;;5097808;28;20051;-80
2024/04/03 09:55:36;;;;;;;8.48;3.03;;;11.40;99.90;;;;;;5106488;28;20050;-79
2024/04/03 09:58:12;;;;;;;4.88;2.70;;;11.40;99.90;;;;;;5095572;28;20120;-79
2024/04/03 10:00:39;;;;;;;6.28;3.17;;;11.40;99.90;;;;;;5099214;28;20105;-78
2024/04/03 10:03:05;;;;;;;5.25;3.20;;;11.40;99.90;;;;;;5117257;28;20043;-81
2024/04/03 10:05:36;;;;;;;6.90;3.20;;;11.40;99.90;;;;;;5098529;28;20043;-77
2024/04/03 10:08:02;;;;;;;5.47;3.00;;;11.40;99.90;;;;;;5104869;27;20050;-77
2024/04/03 10:10:29;;;;;;;5.22;2.53;;;11.40;99.90;;;;;;5119634;27;20043;-78
2024/04/03 10:12:59;;;;;;;6.07;2.90;;;11.40;99.90;;;;;;5119939;27;20046;-77
2024/04/03 10:15:25;;;;;;;5.45;3.05;;;11.30;99.90;;;;;;5119647;27;20081;-77
2024/04/03 10:17:50;;;;;;;6.68;3.65;;;11.30;99.90;;;;;;5137659;27;20443;-78
2024/04/03 10:20:36;;;;;;;7.32;2.92;;;11.40;99.90;;;;;;5128137;27;20039;-81
2024/04/03 10:23:04;;;;;;;5.85;3.30;;;11.30;99.90;;;;;;5136710;27;20039;-78
2024/04/03 10:25:30;;;;;;;6.32;3.22;;;11.20;99.90;;;;;;5128584;27;20776;-78
2024/04/03 10:27:57;;;;;;;4.63;3.05;;;11.20;99.90;;;;;;5099195;28;20048;-80
2024/04/03 10:30:23;;;;;;;6.50;3.50;;;11.50;99.90;;;;;;5098940;28;20048;-78
2024/04/03 10:32:53;;;;;;;6.18;3.38;;;11.30;99.90;;;;;;5116867;28;20373;-78
2024/04/03 10:35:18;;;;;;;7.35;4.05;;;11.30;99.90;;;;;;5098061;28;20048;-78
2024/04/03 10:37:45;;;;;;;6.72;3.83;;;11.30;99.90;;;;;;5098214;28;20163;-78
2024/04/03 10:40:12;;;;;;;7.65;3.97;;;11.30;99.90;;;;;;5081494;28;20035;-78
2024/04/03 10:42:38;;;;;;;8.85;5.00;;;11.40;99.90;;;;;;5098307;28;20044;-79
2024/04/03 10:45:04;;;;;;;8.52;4.82;;;11.50;99.90;;;;;;5112047;28;20047;-80
2024/04/03 10:47:29;;;;;;;8.25;5.70;;;11.40;99.90;;;;;;5107360;27;20051;-78
2024/04/03 10:49:55;;;;;;;8.95;5.68;;;11.50;99.90;;;;;;5118936;27;20058;-78
2024/04/03 10:52:21;;;;;;;10.05;5.78;;;11.50;99.90;;;;;;5119101;27;20139;-78
2024/04/03 10:54:47;;;;;;;13.27;6.05;;;11.60;99.90;;;;;;5118446;27;20043;-78
2024/04/03 10:57:12;;;;;;;9.38;5.90;;;11.60;99.90;;;;;;5137295;27;20070;-78
2024/04/03 10:59:38;;;;;;;10.70;6.90;;;11.50;99.90;;;;;;5101649;27;20031;-78
2024/04/03 11:02:10;;;;;;;11.05;6.85;;;11.60;99.90;;;;;;5118063;27;20570;-78
2024/04/03 11:04:35;;;;;;;11.27;7.00;;;11.60;99.90;;;;;;5120235;27;20856;-79
2024/04/03 11:07:01;;;;;;;11.05;7.32;;;11.50;99.90;;;;;;5135717;27;20038;-78
2024/04/03 11:09:27;;;;;;;14.55;7.20;;;11.60;99.90;;;;;;5118242;27;20039;-78
2024/04/03 11:11:53;;;;;;;10.38;7.45;;;11.60;99.90;;;;;;5118337;27;20470;-79
2024/04/03 11:14:36;;;;;;;9.55;7.18;;;11.50;99.90;;;;;;5101531;27;20047;-78
2024/04/03 11:17:07;;;;;;;10.77;6.72;;;11.50;99.90;;;;;;5118160;27;20469;-79
2024/04/03 11:19:36;;;;;;;11.95;8.95;;;11.50;99.90;;;;;;5136569;27;20092;-79
2024/04/03 11:22:02;;;;;;;11.30;8.63;;;11.50;99.90;;;;;;5118164;27;20042;-78
2024/04/03 11:24:28;;;;;;;10.48;6.78;;;11.50;99.90;;;;;;5117581;27;20122;-82
2024/04/03 11:26:54;;;;;;;9.88;7.53;;;11.40;99.90;;;;;;5133396;27;20043;-79
2024/04/03 11:29:30;;;;;;;13.18;8.77;;;11.40;99.90;;;;;;5116722;27;20042;-79
2024/04/03 11:31:59;;;;;;;11.88;8.30;;;11.40;99.90;;;;;;5115736;27;20069;-80
2024/04/03 11:34:29;;;;;;;12.43;8.50;;;11.40;99.90;;;;;;5115547;27;20078;-79
2024/04/03 11:36:56;;;;;;;10.50;6.55;;;11.50;99.90;;;;;;5101702;27;20055;-79
2024/04/03 11:39:22;;;;;;;11.50;7.45;;;11.40;99.90;;;;;;5116683;27;20051;-79
2024/04/03 11:41:48;;;;;;;9.73;7.68;;;11.40;99.90;;;;;;5111387;28;20047;-78
2024/04/03 11:44:14;;;;;;;11.15;8.13;;;11.50;99.90;;;;;;5096159;27;20093;-78
2024/04/03 11:46:43;;;;;;;8.98;7.07;;;11.50;99.90;;;;;;5097996;28;20043;-78
2024/04/03 11:49:08;;;;;;;12.23;7.40;;;11.50;99.90;;;;;;5096659;28;20048;-78
2024/04/03 11:51:34;;;;;;;11.20;7.28;;;11.60;99.90;;;;;;5096947;28;20047;-78
2024/04/03 11:54:00;;;;;;;11.32;6.80;;;11.70;99.90;;;;;;5096910;28;20043;-78
2024/04/03 11:56:29;;;;;;;9.10;6.95;;;11.70;99.90;;;;;;5099322;27;20048;-78
2024/04/03 11:58:55;;;;;;;8.68;6.60;;;11.70;99.90;;;;;;5098850;28;20039;-79
2024/04/03 12:01:21;;;;;;;9.13;6.05;;;11.80;99.90;;;;;;5096820;28;20880;-79
2024/04/03 12:03:46;;;;;;;11.35;5.40;;;11.80;99.90;;;;;;5115018;28;20050;-78
2024/04/03 12:06:13;;;;;;;8.00;5.90;;;11.80;99.90;;;;;;5096395;28;20043;-79
2024/04/03 12:08:38;;;;;;;7.20;4.95;;;11.90;99.90;;;;;;5122604;27;20104;-79
2024/04/03 12:11:04;;;;;;;8.60;4.78;;;11.90;99.90;;;;;;5135371;27;20126;-78
2024/04/03 12:13:31;;;;;;;6.78;4.32;;;11.90;99.90;;;;;;5116873;27;20479;-78
2024/04/03 12:15:59;;;;;;;8.65;4.15;;;11.80;99.90;;;;;;5095427;28;20055;-77
2024/04/03 12:18:25;;;;;;;6.15;3.63;;;11.90;99.90;;;;;;5114180;27;20709;-78
2024/04/03 12:20:54;;;;;;;8.70;4.20;;;11.90;99.90;;;;;;5111155;27;20039;-78
2024/04/03 12:23:20;;;;;;;9.73;4.57;;;11.90;99.90;;;;;;5117437;27;20126;-80
2024/04/03 12:25:46;;;;;;;7.95;4.38;;;11.90;99.90;;;;;;5115534;27;20881;-78
2024/04/03 12:28:12;;;;;;;10.77;5.05;;;12.00;99.90;;;;;;5115745;27;20057;-83
2024/04/03 12:30:38;;;;;;;8.10;5.18;;;12.00;99.90;;;;;;5107261;27;20070;-79
2024/04/03 12:33:06;;;;;;;11.27;5.90;;;12.00;99.90;;;;;;5110692;27;20075;-79
2024/04/03 12:35:32;;;;;;;7.75;5.03;;;12.10;99.90;;;;;;5095842;28;20057;-80
2024/04/03 12:37:58;;;;;;;8.38;4.97;;;12.20;99.90;;;;;;5114731;28;20054;-80
2024/04/03 12:40:24;;;;;;;7.20;4.38;;;12.20;99.90;;;;;;5078644;28;20039;-79
2024/04/03 12:42:50;;;;;;;6.45;4.40;;;12.20;99.90;;;;;;5089684;27;20046;-80
2024/04/03 12:45:19;;;;;;;8.02;4.40;;;12.20;99.90;;;;;;5115871;27;20053;-79